createdAt,value
2022-12-11T00:03:52.174Z,5.70
2022-12-11T00:10:02.368Z,8.20
2022-12-11T00:15:00.528Z,5.63
2022-12-11T00:20:00.285Z,7.53
2022-12-11T00:25:24.792Z,7.70
2022-12-11T00:30:22.912Z,6.00
2022-12-11T00:35:47.989Z,5.87
2022-12-11T00:40:46.802Z,5.03
2022-12-11T00:45:47.145Z,7.20
2022-12-11T00:50:45.434Z,5.13
2022-12-11T00:55:45.262Z,6.30
2022-12-11T01:00:50.042Z,5.50
2022-12-11T01:05:54.982Z,5.97
2022-12-11T01:11:03.290Z,6.90
2022-12-11T01:16:01.619Z,4.60
2022-12-11T01:20:59.795Z,5.60
2022-12-11T01:25:59.296Z,5.70
2022-12-11T01:30:57.509Z,8.20
2022-12-11T01:35:55.744Z,5.10
2022-12-11T01:40:54.119Z,6.20
2022-12-11T01:45:53.870Z,5.87
2022-12-11T01:50:55.066Z,7.93
2022-12-11T01:55:56.112Z,5.47
2022-12-11T02:00:56.769Z,6.70
2022-12-11T02:05:54.998Z,6.40
2022-12-11T02:11:05.262Z,6.03
2022-12-11T02:16:15.283Z,5.33
2022-12-11T02:21:20.758Z,6.80
2022-12-11T02:26:33.314Z,7.43
2022-12-11T02:31:39.769Z,5.83
2022-12-11T02:36:41.988Z,6.27
2022-12-11T02:41:42.442Z,5.57
2022-12-11T02:46:44.102Z,5.70
2022-12-11T02:51:44.300Z,5.20
2022-12-11T02:56:46.968Z,5.60
2022-12-11T03:01:47.556Z,7.03
2022-12-11T03:06:51.290Z,6.40
2022-12-11T03:11:49.460Z,6.37
2022-12-11T03:16:55.877Z,5.03
2022-12-11T03:21:56.692Z,5.20
2022-12-11T03:27:00.963Z,5.07
2022-12-11T03:32:08.404Z,5.10
2022-12-11T03:37:08.735Z,6.30
2022-12-11T03:42:11.307Z,6.27
2022-12-11T03:47:12.233Z,5.87
2022-12-11T03:52:12.092Z,6.10
2022-12-11T03:57:16.052Z,5.40
2022-12-11T04:02:15.575Z,5.47
2022-12-11T04:07:13.731Z,5.07
2022-12-11T04:12:11.911Z,4.73
2022-12-11T04:17:10.143Z,6.57
2022-12-11T04:22:28.792Z,6.77
2022-12-11T04:27:44.801Z,5.47
2022-12-11T04:32:43.170Z,4.60
2022-12-11T04:37:43.136Z,5.10
2022-12-11T04:42:41.785Z,5.17
2022-12-11T04:47:41.430Z,3.93
2022-12-11T04:52:39.916Z,5.40
2022-12-11T04:57:40.058Z,4.97
2022-12-11T05:02:39.040Z,5.17
2022-12-11T05:14:33.015Z,5.17
2022-12-11T05:19:31.182Z,7.00
2022-12-11T05:24:29.411Z,4.90
2022-12-11T05:29:27.636Z,4.27
2022-12-11T05:34:27.205Z,5.20
2022-12-11T05:39:25.449Z,4.80
2022-12-11T05:44:23.783Z,5.20
2022-12-11T05:49:27.334Z,5.70
2022-12-11T05:54:30.126Z,4.97
2022-12-11T05:59:28.357Z,4.63
2022-12-11T06:04:26.498Z,4.23
2022-12-11T06:09:24.610Z,5.60
2022-12-11T06:14:24.127Z,4.90
2022-12-11T06:19:22.516Z,5.90
2022-12-11T06:24:20.779Z,5.43
2022-12-11T06:29:18.892Z,5.60
2022-12-11T06:34:18.503Z,4.93
2022-12-11T06:39:16.632Z,5.53
2022-12-11T06:44:14.824Z,5.60
2022-12-11T06:49:12.976Z,4.77
2022-12-11T07:00:38.504Z,4.93
2022-12-11T07:05:36.699Z,5.20
2022-12-11T07:10:34.883Z,6.10
2022-12-11T07:15:36.437Z,6.07
2022-12-11T07:20:39.714Z,5.97
2022-12-11T07:25:38.414Z,6.17
2022-12-11T07:30:47.635Z,6.27
2022-12-11T07:35:47.227Z,4.90
2022-12-11T07:40:45.462Z,5.50
2022-12-11T07:45:43.714Z,6.70
2022-12-11T07:50:41.865Z,6.10
2022-12-11T08:03:07.070Z,7.67
2022-12-11T08:08:05.616Z,4.50
2022-12-11T08:13:03.866Z,10.30
2022-12-11T08:18:02.009Z,9.23
2022-12-11T08:23:01.543Z,8.60
2022-12-11T08:27:59.729Z,8.20
2022-12-11T08:33:36.436Z,8.70
2022-12-11T08:38:36.300Z,8.80
2022-12-11T08:43:34.996Z,9.27
2022-12-11T08:48:33.199Z,10.73
2022-12-11T08:53:32.064Z,11.80
2022-12-11T08:58:31.621Z,10.00
2022-12-11T09:03:29.822Z,8.77
2022-12-11T09:08:28.027Z,7.80
2022-12-11T09:13:26.183Z,7.60
2022-12-11T09:18:25.702Z,7.17
2022-12-11T09:23:23.860Z,7.83
2022-12-11T09:28:22.249Z,9.50
2022-12-11T09:33:20.393Z,6.20
2022-12-11T09:38:19.915Z,7.10
2022-12-11T09:50:18.700Z,5.90
2022-12-11T10:02:23.669Z,7.93
2022-12-11T10:07:49.716Z,4.93
2022-12-11T10:12:55.865Z,5.10
2022-12-11T10:18:04.370Z,8.23
2022-12-11T10:23:03.836Z,7.43
2022-12-11T10:28:10.182Z,6.77
2022-12-11T10:33:21.994Z,6.20
2022-12-11T10:38:47.723Z,6.77
2022-12-11T10:43:48.403Z,5.20
2022-12-11T10:48:49.225Z,7.63
2022-12-11T10:53:52.179Z,7.33
2022-12-11T10:58:51.615Z,4.70
2022-12-11T11:04:01.360Z,4.43
2022-12-11T11:09:03.017Z,6.80
2022-12-11T11:20:58.615Z,6.20
2022-12-11T11:25:58.737Z,4.20
2022-12-11T11:31:01.839Z,6.47
2022-12-11T11:36:03.481Z,4.50
2022-12-11T11:41:15.157Z,6.13
2022-12-11T11:46:18.407Z,4.80
2022-12-11T11:51:45.725Z,5.83
2022-12-11T11:56:45.138Z,6.40
2022-12-11T12:01:44.477Z,4.53
2022-12-11T12:13:49.676Z,6.37
2022-12-11T12:18:58.746Z,5.60
2022-12-11T12:24:11.348Z,7.27
2022-12-11T12:29:20.920Z,6.03
2022-12-11T12:34:29.793Z,7.80
2022-12-11T12:39:38.160Z,9.07
2022-12-11T12:44:48.294Z,8.53
2022-12-11T12:49:49.131Z,9.20
2022-12-11T12:55:27.261Z,9.73
2022-12-11T13:00:36.044Z,7.77
2022-12-11T13:12:36.025Z,6.80
2022-12-11T13:18:06.441Z,7.07
2022-12-11T13:23:29.635Z,8.73
2022-12-11T13:28:34.675Z,7.60
2022-12-11T13:33:39.915Z,7.60
2022-12-11T13:38:39.973Z,7.10
2022-12-11T13:44:16.279Z,6.30
2022-12-11T13:49:24.178Z,6.47
2022-12-11T13:54:22.402Z,6.67
2022-12-11T13:59:25.286Z,5.90
2022-12-11T14:11:22.498Z,7.93
2022-12-11T14:16:22.875Z,7.70
2022-12-11T14:21:23.282Z,7.73
2022-12-11T14:26:24.696Z,6.90
2022-12-11T14:31:30.209Z,8.10
2022-12-11T14:36:29.293Z,8.80
2022-12-11T14:42:08.651Z,9.70
2022-12-11T14:47:15.556Z,9.60
2022-12-11T14:59:04.609Z,10.50
2022-12-11T15:04:30.464Z,9.30
2022-12-11T15:09:41.485Z,9.00
2022-12-11T15:15:08.187Z,9.73
2022-12-11T15:20:11.374Z,9.00
2022-12-11T15:25:20.175Z,11.60
2022-12-11T15:30:34.559Z,12.20
2022-12-11T15:36:37.957Z,13.03
2022-12-11T15:41:37.772Z,9.60
2022-12-11T15:53:25.123Z,11.43
2022-12-11T15:58:27.272Z,10.27
2022-12-11T16:03:25.664Z,10.50
2022-12-11T16:08:25.589Z,11.03
2022-12-11T16:13:25.168Z,10.30
2022-12-11T16:18:26.544Z,10.93
2022-12-11T16:23:24.987Z,10.60
2022-12-11T16:28:24.502Z,11.97
2022-12-11T16:33:22.793Z,13.50
2022-12-11T16:38:20.915Z,12.30
2022-12-11T16:43:19.047Z,13.60
2022-12-11T16:48:18.536Z,12.03
2022-12-11T16:53:17.571Z,11.47
2022-12-11T16:58:19.993Z,14.23
2022-12-11T17:03:21.965Z,13.07
2022-12-11T17:08:20.167Z,14.33
2022-12-11T17:13:18.424Z,15.77
2022-12-11T17:18:16.634Z,13.70
2022-12-11T17:23:16.155Z,13.43
2022-12-11T17:28:14.400Z,10.40
2022-12-11T17:33:12.895Z,13.37
2022-12-11T17:38:11.099Z,15.77
2022-12-11T17:43:10.962Z,13.40
2022-12-11T17:48:09.188Z,12.40
2022-12-11T17:53:07.348Z,12.43
2022-12-11T17:58:05.610Z,14.63
2022-12-11T18:03:05.438Z,13.97
2022-12-11T18:08:03.641Z,13.70
2022-12-11T18:13:01.873Z,13.73
2022-12-11T18:18:00.173Z,12.70
2022-12-11T18:22:59.767Z,14.70
2022-12-11T18:27:59.535Z,14.00
2022-12-11T18:32:57.722Z,12.33
2022-12-11T18:38:22.842Z,14.23
2022-12-11T18:43:21.928Z,16.80
2022-12-11T18:48:20.104Z,12.97
2022-12-11T18:53:19.535Z,13.13
2022-12-11T18:58:20.583Z,13.10
2022-12-11T19:03:18.798Z,11.90
2022-12-11T19:08:17.710Z,11.50
2022-12-11T19:20:32.221Z,12.27
2022-12-11T19:25:26.364Z,13.70
2022-12-11T19:30:24.908Z,13.27
2022-12-11T19:35:26.077Z,13.63
2022-12-11T19:40:26.232Z,14.40
2022-12-11T19:45:24.741Z,14.60
2022-12-11T19:50:23.144Z,14.80
2022-12-11T19:55:22.732Z,12.93
2022-12-11T20:00:21.130Z,14.17
2022-12-11T20:05:19.454Z,14.67
2022-12-11T20:10:17.741Z,15.80
2022-12-11T20:15:19.576Z,15.40
2022-12-11T20:20:17.855Z,14.00
2022-12-11T20:25:16.066Z,14.07
2022-12-11T20:30:16.138Z,13.67
2022-12-11T20:35:14.666Z,10.90
2022-12-11T20:40:14.250Z,12.73
2022-12-11T20:45:13.215Z,11.57
2022-12-11T20:50:12.978Z,12.83
2022-12-11T20:55:11.755Z,11.47
2022-12-11T21:00:11.690Z,11.73
2022-12-11T21:05:10.504Z,11.00
2022-12-11T21:10:11.413Z,11.40
2022-12-11T21:15:11.078Z,12.03
2022-12-11T21:20:10.329Z,10.80
2022-12-11T21:25:10.803Z,12.10
2022-12-11T21:30:09.820Z,9.20
2022-12-11T21:35:09.770Z,13.03
2022-12-11T21:40:10.651Z,12.63
2022-12-11T21:50:27.311Z,12.90
2022-12-11T21:55:26.893Z,13.40
2022-12-11T22:00:25.194Z,13.10
2022-12-11T22:05:23.576Z,15.77
2022-12-11T22:10:21.768Z,11.37
2022-12-11T22:15:21.381Z,13.90
2022-12-11T22:20:19.783Z,13.80
2022-12-11T22:31:50.311Z,15.73
2022-12-11T22:36:48.972Z,11.90
2022-12-11T22:55:40.718Z,10.50
2022-12-11T23:00:38.837Z,17.60
2022-12-11T23:12:34.384Z,11.90
2022-12-11T23:17:32.543Z,12.57
2022-12-11T23:29:26.088Z,11.80
2022-12-11T23:34:24.302Z,10.80
2022-12-11T23:39:22.334Z,11.30
2022-12-11T23:44:20.338Z,14.17
2022-12-11T23:49:19.831Z,12.40
2022-12-11T23:54:18.032Z,11.97
